Brigham City, Utah
Current Conditions -  °F | °C
As of 6:15 PM on Sunday 23 Nov 2014 (Local Time) from KBMC Reporting Station
Overcast Overcast  
Wind Chill: 35°   Ceiling: 5000
Heat Index: 35°   Visibility: 10mi
Dew Point: 25°   Wind: 0mph
Humidity: 66%   Direction: NA
Pressure: 30.23"   Gusts: NA
Location:  41.51°N, 112.01°W
Report Text: KBMC 240115Z AUTO 00000KT 10SM BKN050 OVC055 02/M04 A3023 RMK AO1 T00171040
Loading
Personal Weather Stations






























Interactive Weather Map New forecast layout! Learn more

10-Day Weather Forecast

Advertisements
Track Severe Weather on mobile